createdAt,value
2018-11-02T00:00:42.104Z,9.40
2018-11-02T00:03:10.736Z,9.40
2018-11-02T00:05:39.223Z,9.30
2018-11-02T00:08:08.564Z,9.30
2018-11-02T00:10:37.072Z,9.30
2018-11-02T00:13:05.679Z,9.20
2018-11-02T00:15:37.267Z,9.20
2018-11-02T00:18:06.062Z,9.10
2018-11-02T00:20:34.646Z,9.10
2018-11-02T00:23:03.234Z,9.00
2018-11-02T00:25:31.779Z,9.00
2018-11-02T00:28:00.367Z,8.90
2018-11-02T00:30:28.963Z,8.90
2018-11-02T00:32:57.541Z,8.80
2018-11-02T00:35:26.021Z,8.80
2018-11-02T00:37:54.605Z,8.80
2018-11-02T00:40:23.176Z,8.80
2018-11-02T00:42:51.897Z,8.80
2018-11-02T00:45:20.383Z,8.80
2018-11-02T00:47:48.981Z,8.80
2018-11-02T00:50:17.639Z,8.80
2018-11-02T00:52:53.199Z,8.80
2018-11-02T00:55:21.749Z,8.80
2018-11-02T00:57:50.406Z,8.70
2018-11-02T01:00:18.997Z,8.70
2018-11-02T01:02:47.502Z,8.70
2018-11-02T01:05:16.116Z,8.60
2018-11-02T01:07:44.646Z,8.70
2018-11-02T01:10:13.161Z,8.70
2018-11-02T01:12:41.817Z,8.70
2018-11-02T01:15:10.913Z,8.70
2018-11-02T01:17:39.562Z,8.80
2018-11-02T01:20:09.958Z,8.80
2018-11-02T01:22:38.549Z,8.80
2018-11-02T01:25:07.727Z,8.80
2018-11-02T01:27:36.243Z,8.80
2018-11-02T01:30:05.288Z,8.80
2018-11-02T01:32:33.818Z,8.70
2018-11-02T01:35:02.368Z,8.60
2018-11-02T01:37:30.864Z,8.70
2018-11-02T01:40:07.081Z,8.60
2018-11-02T01:42:35.787Z,8.50
2018-11-02T01:45:04.554Z,8.50
2018-11-02T01:47:33.155Z,8.50
2018-11-02T01:50:01.705Z,8.50
2018-11-02T01:52:30.269Z,8.40
2018-11-02T01:54:58.909Z,8.30
2018-11-02T01:57:27.515Z,8.30
2018-11-02T01:59:56.152Z,8.20
2018-11-02T02:02:24.794Z,8.10
2018-11-02T02:04:53.330Z,8.10
2018-11-02T02:07:22.010Z,8.10
2018-11-02T02:09:50.691Z,8.00
2018-11-02T02:12:19.324Z,8.00
2018-11-02T02:14:48.025Z,8.00
2018-11-02T02:17:16.549Z,8.00
2018-11-02T02:19:45.183Z,8.00
2018-11-02T02:22:13.862Z,7.90
2018-11-02T02:24:42.417Z,7.90
2018-11-02T02:27:12.280Z,7.90
2018-11-02T02:29:40.838Z,7.90
2018-11-02T02:32:09.378Z,7.90
2018-11-02T02:34:37.936Z,7.80
2018-11-02T02:37:06.572Z,7.80
2018-11-02T02:39:35.178Z,7.80
2018-11-02T02:42:03.748Z,7.80
2018-11-02T02:44:32.356Z,7.80
2018-11-02T02:47:00.949Z,7.80
2018-11-02T02:49:29.561Z,7.70
2018-11-02T02:51:58.175Z,7.60
2018-11-02T02:54:26.688Z,7.70
2018-11-02T02:56:55.418Z,7.60
2018-11-02T02:59:23.976Z,7.60
2018-11-02T03:01:52.613Z,7.50
2018-11-02T03:04:21.197Z,7.50
2018-11-02T03:06:49.751Z,7.50
2018-11-02T03:09:18.365Z,7.40
2018-11-02T03:11:46.962Z,7.40
2018-11-02T03:14:16.173Z,7.40
2018-11-02T03:16:44.669Z,7.40
2018-11-02T03:19:13.739Z,7.40
2018-11-02T03:21:42.401Z,7.30
2018-11-02T03:24:11.342Z,7.30
2018-11-02T03:26:39.906Z,7.20
2018-11-02T03:29:08.457Z,7.20
2018-11-02T03:31:37.013Z,7.10
2018-11-02T03:34:05.997Z,7.20
2018-11-02T03:36:34.633Z,7.10
2018-11-02T03:39:03.362Z,7.10
2018-11-02T03:41:31.864Z,7.10
2018-11-02T03:44:00.479Z,7.10
2018-11-02T03:46:29.185Z,7.10
2018-11-02T03:48:57.784Z,7.00
2018-11-02T03:51:26.480Z,7.00
2018-11-02T03:53:55.261Z,7.00
2018-11-02T03:56:23.869Z,7.00
2018-11-02T03:58:52.433Z,6.90
2018-11-02T04:01:21.382Z,6.90
2018-11-02T04:03:50.010Z,6.90
2018-11-02T04:06:18.627Z,6.80
2018-11-02T04:08:47.317Z,6.80
2018-11-02T04:11:15.825Z,6.80
2018-11-02T04:13:44.363Z,6.80
2018-11-02T04:16:12.973Z,6.80
2018-11-02T04:18:41.525Z,6.80
2018-11-02T04:21:10.208Z,6.80
2018-11-02T04:23:39.546Z,6.80
2018-11-02T04:26:08.343Z,6.80
2018-11-02T04:28:37.017Z,6.80
2018-11-02T04:31:05.654Z,6.80
2018-11-02T04:33:34.188Z,6.70
2018-11-02T04:36:02.777Z,6.70
2018-11-02T04:38:31.325Z,6.70
2018-11-02T04:40:59.994Z,6.70
2018-11-02T04:43:28.489Z,6.60
2018-11-02T04:45:57.043Z,6.60
2018-11-02T04:48:29.375Z,6.60
2018-11-02T04:50:57.974Z,6.60
2018-11-02T04:53:26.561Z,6.60
2018-11-02T04:55:55.107Z,6.60
2018-11-02T04:58:23.689Z,6.50
2018-11-02T05:00:52.255Z,6.50
2018-11-02T05:03:20.790Z,6.50
2018-11-02T05:05:49.421Z,6.50
2018-11-02T05:08:17.942Z,6.50
2018-11-02T05:10:46.556Z,6.50
2018-11-02T05:13:15.127Z,6.40
2018-11-02T05:15:43.707Z,6.40
2018-11-02T05:18:12.289Z,6.40
2018-11-02T05:20:40.854Z,6.40
2018-11-02T05:23:09.389Z,6.40
2018-11-02T05:25:38.097Z,6.30
2018-11-02T05:28:06.893Z,6.30
2018-11-02T05:30:35.452Z,6.20
2018-11-02T05:33:04.134Z,6.20
2018-11-02T05:35:32.649Z,6.20
2018-11-02T05:38:01.213Z,6.20
2018-11-02T05:40:29.777Z,6.20
2018-11-02T05:42:58.349Z,6.20
2018-11-02T05:45:26.937Z,6.20
2018-11-02T05:47:55.541Z,6.20
2018-11-02T05:50:24.108Z,6.20
2018-11-02T05:52:52.729Z,6.20
2018-11-02T05:55:21.302Z,6.20
2018-11-02T05:57:49.980Z,6.20
2018-11-02T06:00:18.565Z,6.20
2018-11-02T06:02:47.225Z,6.20
2018-11-02T06:05:15.785Z,6.20
2018-11-02T06:07:44.365Z,6.30
2018-11-02T06:10:12.929Z,6.30
2018-11-02T06:12:41.608Z,6.30
2018-11-02T06:15:10.104Z,6.30
2018-11-02T06:17:38.711Z,6.30
2018-11-02T06:20:12.259Z,6.20
2018-11-02T06:22:41.653Z,6.20
2018-11-02T06:25:10.273Z,6.20
2018-11-02T06:27:38.988Z,6.10
2018-11-02T06:30:08.749Z,6.10
2018-11-02T06:32:37.637Z,6.10
2018-11-02T06:35:07.421Z,6.10
2018-11-02T06:37:37.116Z,6.10
2018-11-02T06:40:06.513Z,6.10
2018-11-02T06:42:35.254Z,6.10
2018-11-02T06:45:03.897Z,6.10
2018-11-02T06:47:32.459Z,6.10
2018-11-02T06:50:00.969Z,6.10
2018-11-02T06:52:29.665Z,6.10
2018-11-02T06:54:59.061Z,6.10
2018-11-02T06:57:28.088Z,6.10
2018-11-02T06:59:56.915Z,6.10
2018-11-02T07:02:27.220Z,6.10
2018-11-02T07:04:56.042Z,6.10
2018-11-02T07:07:27.357Z,6.10
2018-11-02T07:09:56.216Z,6.20
2018-11-02T07:12:24.825Z,6.20
2018-11-02T07:14:53.397Z,6.20
2018-11-02T07:17:22.573Z,6.30
2018-11-02T07:19:51.440Z,6.30
2018-11-02T07:22:20.262Z,6.30
2018-11-02T07:24:48.928Z,6.30
2018-11-02T07:27:17.690Z,6.40
2018-11-02T07:29:46.328Z,6.40
2018-11-02T07:32:15.433Z,6.40
2018-11-02T07:34:44.021Z,6.40
2018-11-02T07:37:12.751Z,6.40
2018-11-02T07:39:41.290Z,6.40
2018-11-02T07:42:09.889Z,6.50
2018-11-02T07:44:38.585Z,6.50
2018-11-02T07:47:07.233Z,6.60
2018-11-02T07:49:36.025Z,6.60
2018-11-02T07:52:04.997Z,6.60
2018-11-02T07:54:33.956Z,6.70
2018-11-02T07:57:02.587Z,6.70
2018-11-02T07:59:31.414Z,6.80
2018-11-02T08:02:00.204Z,6.80
2018-11-02T08:04:28.777Z,6.80
2018-11-02T08:06:57.386Z,6.90
2018-11-02T08:09:26.134Z,6.90
2018-11-02T08:11:54.815Z,7.00
2018-11-02T08:14:23.657Z,7.10
2018-11-02T08:16:52.323Z,7.20
2018-11-02T08:19:20.986Z,7.30
2018-11-02T08:21:49.510Z,7.60
2018-11-02T08:24:18.161Z,7.80
2018-11-02T08:26:46.846Z,7.90
2018-11-02T08:29:15.463Z,8.00
2018-11-02T08:31:44.066Z,8.00
2018-11-02T08:34:12.679Z,7.90
2018-11-02T08:36:41.281Z,7.80
2018-11-02T08:39:11.441Z,7.80
2018-11-02T08:41:39.975Z,7.90
2018-11-02T08:44:09.142Z,7.90
2018-11-02T08:46:38.078Z,8.00
2018-11-02T08:49:06.742Z,8.00
2018-11-02T08:51:35.349Z,8.10
2018-11-02T08:54:04.177Z,8.20
2018-11-02T08:56:32.901Z,8.30
2018-11-02T08:59:01.668Z,8.40
2018-11-02T09:01:30.627Z,8.40
2018-11-02T09:03:59.258Z,8.50
2018-11-02T09:06:27.913Z,8.70
2018-11-02T09:08:56.785Z,8.70
2018-11-02T09:11:25.458Z,8.80
2018-11-02T09:13:54.673Z,8.90
2018-11-02T09:16:23.275Z,8.90
2018-11-02T09:18:52.142Z,9.00
2018-11-02T09:21:20.627Z,9.00
2018-11-02T09:23:49.478Z,9.10
2018-11-02T09:26:18.137Z,9.10
2018-11-02T09:28:46.752Z,9.20
2018-11-02T09:31:15.432Z,9.20
2018-11-02T09:33:44.331Z,9.30
2018-11-02T09:36:13.150Z,9.30
2018-11-02T09:38:42.047Z,9.40
2018-11-02T09:41:10.714Z,9.50
2018-11-02T09:43:39.326Z,9.50
2018-11-02T09:46:07.929Z,9.60
2018-11-02T09:48:36.615Z,9.60
2018-11-02T09:51:05.746Z,9.70
2018-11-02T09:53:34.703Z,9.70
2018-11-02T09:56:03.491Z,9.80
2018-11-02T09:58:32.164Z,9.90
2018-11-02T10:01:00.789Z,10.00
2018-11-02T10:03:29.469Z,10.00
2018-11-02T10:05:58.129Z,10.10
2018-11-02T10:08:27.002Z,10.20
2018-11-02T10:10:55.676Z,10.20
2018-11-02T10:13:25.101Z,10.20
2018-11-02T10:15:53.915Z,10.30
2018-11-02T10:18:22.797Z,10.40
2018-11-02T10:20:51.521Z,10.50
2018-11-02T10:23:20.430Z,10.60
2018-11-02T10:25:49.225Z,10.60
2018-11-02T10:28:18.110Z,10.50
2018-11-02T10:30:46.883Z,10.60
2018-11-02T10:33:16.018Z,10.60
2018-11-02T10:35:45.136Z,10.70
2018-11-02T10:38:14.342Z,10.80
2018-11-02T10:40:46.243Z,10.80
2018-11-02T10:43:16.945Z,10.80
2018-11-02T10:45:46.950Z,10.90
2018-11-02T10:48:17.256Z,11.00
2018-11-02T10:50:46.030Z,11.10
2018-11-02T10:53:14.922Z,11.40
2018-11-02T10:55:43.595Z,11.70
2018-11-02T10:58:19.753Z,11.90
2018-11-02T11:00:59.008Z,12.20
2018-11-02T11:03:27.849Z,12.30
2018-11-02T11:05:56.568Z,12.30
2018-11-02T11:08:25.319Z,12.10
2018-11-02T11:10:54.328Z,11.90
2018-11-02T11:13:23.394Z,11.50
2018-11-02T11:15:52.036Z,11.30
2018-11-02T11:18:20.705Z,11.10
2018-11-02T11:20:49.712Z,11.00
2018-11-02T11:23:18.644Z,11.10
2018-11-02T11:25:47.249Z,11.30
2018-11-02T11:28:16.893Z,11.50
2018-11-02T11:30:45.640Z,11.50
2018-11-02T11:33:14.387Z,11.70
2018-11-02T11:35:43.267Z,11.60
2018-11-02T11:38:12.202Z,11.50
2018-11-02T11:40:40.938Z,12.10
2018-11-02T11:43:09.636Z,14.00
2018-11-02T11:45:38.342Z,16.10
2018-11-02T11:48:07.006Z,17.10
2018-11-02T11:50:35.880Z,18.10
2018-11-02T11:53:04.583Z,18.60
2018-11-02T11:55:33.625Z,19.10
2018-11-02T11:58:02.484Z,20.20
2018-11-02T12:00:31.366Z,21.80
2018-11-02T12:03:00.153Z,22.50
2018-11-02T12:05:28.837Z,21.80
2018-11-02T12:07:57.955Z,21.40
2018-11-02T12:10:26.883Z,20.30
2018-11-02T12:12:55.835Z,19.50
2018-11-02T12:15:24.710Z,20.10
2018-11-02T12:17:53.335Z,21.40
2018-11-02T12:20:24.562Z,22.70
2018-11-02T12:22:55.134Z,23.40
2018-11-02T12:25:23.884Z,22.80
2018-11-02T12:27:52.914Z,21.40
2018-11-02T12:30:21.785Z,21.70
2018-11-02T12:32:53.711Z,21.70
2018-11-02T12:35:22.580Z,21.30
2018-11-02T12:37:54.178Z,20.60
2018-11-02T12:40:23.623Z,19.80
2018-11-02T12:42:53.379Z,20.40
2018-11-02T12:45:22.725Z,21.80
2018-11-02T12:50:44.997Z,20.20
2018-11-02T12:53:14.838Z,19.80
2018-11-02T12:55:43.720Z,20.20
2018-11-02T12:58:12.459Z,21.60
2018-11-02T13:00:41.197Z,22.80
2018-11-02T13:03:09.871Z,23.80
2018-11-02T13:05:39.964Z,23.70
2018-11-02T13:08:08.451Z,23.10
2018-11-02T13:10:43.932Z,21.00
2018-11-02T13:13:24.198Z,18.60
2018-11-02T13:15:53.349Z,17.00
2018-11-02T13:18:22.063Z,15.60
2018-11-02T13:20:50.819Z,14.90
2018-11-02T13:23:19.516Z,14.00
2018-11-02T13:25:48.420Z,13.30
2018-11-02T13:28:17.152Z,12.90
2018-11-02T13:30:45.967Z,12.50
2018-11-02T13:33:14.765Z,12.40
2018-11-02T13:35:43.674Z,12.20
2018-11-02T13:38:12.345Z,12.10
2018-11-02T13:40:42.797Z,12.00
2018-11-02T13:43:17.512Z,12.10
2018-11-02T13:45:51.661Z,12.50
2018-11-02T13:48:20.363Z,12.40
2018-11-02T13:50:49.171Z,12.30
2018-11-02T13:53:17.867Z,12.50
2018-11-02T13:56:06.407Z,14.40
2018-11-02T13:58:35.489Z,16.60
2018-11-02T14:01:04.387Z,17.40
2018-11-02T14:03:33.324Z,16.60
2018-11-02T14:06:02.102Z,15.70
2018-11-02T14:08:34.540Z,14.80
2018-11-02T14:11:03.377Z,14.00
2018-11-02T14:13:32.091Z,13.30
2018-11-02T14:16:00.981Z,12.80
2018-11-02T14:18:30.237Z,12.40
2018-11-02T14:20:58.747Z,12.20
2018-11-02T14:23:27.537Z,12.00
2018-11-02T14:25:57.162Z,11.80
2018-11-02T14:28:25.870Z,12.10
2018-11-02T14:30:54.523Z,13.40
2018-11-02T14:33:23.235Z,14.50
2018-11-02T14:35:51.970Z,15.20
2018-11-02T14:38:20.659Z,15.30
2018-11-02T14:40:49.420Z,15.00
2018-11-02T14:43:18.037Z,14.60
2018-11-02T14:48:33.982Z,14.10
2018-11-02T14:51:06.467Z,13.70
2018-11-02T14:53:37.227Z,13.20
2018-11-02T14:56:05.834Z,12.80
2018-11-02T14:58:36.359Z,12.60
2018-11-02T15:04:11.706Z,12.30
2018-11-02T15:06:47.353Z,12.10
2018-11-02T15:20:47.978Z,11.40
2018-11-02T15:23:16.926Z,11.30
2018-11-02T15:25:46.450Z,11.30
2018-11-02T15:28:18.615Z,11.20
2018-11-02T15:30:47.771Z,11.20
2018-11-02T15:33:19.011Z,11.30
2018-11-02T15:35:50.582Z,11.20
2018-11-02T15:38:41.522Z,11.30
2018-11-02T15:41:13.688Z,11.20
2018-11-02T15:43:45.079Z,11.20
2018-11-02T15:46:13.969Z,11.20
2018-11-02T15:48:42.685Z,11.20
2018-11-02T15:51:11.280Z,11.20
2018-11-02T15:53:40.006Z,11.20
2018-11-02T15:56:09.900Z,11.10
2018-11-02T15:58:39.604Z,11.00
2018-11-02T16:01:08.383Z,11.00
2018-11-02T16:03:37.591Z,10.90
2018-11-02T16:06:06.500Z,10.80
2018-11-02T16:08:35.119Z,10.80
2018-11-02T16:11:04.006Z,10.70
2018-11-02T16:13:32.562Z,10.60
2018-11-02T16:16:01.475Z,10.60
2018-11-02T16:18:30.165Z,10.50
2018-11-02T16:20:58.907Z,10.40
2018-11-02T16:23:28.224Z,10.30
2018-11-02T16:25:56.928Z,10.20
2018-11-02T16:28:25.588Z,10.10
2018-11-02T16:30:54.279Z,10.00
2018-11-02T16:33:25.394Z,9.90
2018-11-02T16:35:56.421Z,9.90
2018-11-02T16:38:25.480Z,9.80
2018-11-02T16:41:02.728Z,9.90
2018-11-02T16:47:02.985Z,9.90
2018-11-02T16:49:32.731Z,9.90
2018-11-02T16:52:02.038Z,9.90
2018-11-02T16:54:31.448Z,9.90
2018-11-02T16:57:00.730Z,9.80
2018-11-02T16:59:29.532Z,9.70
2018-11-02T17:01:58.708Z,9.70
2018-11-02T17:04:29.527Z,9.70
2018-11-02T17:06:58.613Z,9.60
2018-11-02T17:09:27.925Z,9.50
2018-11-02T17:11:59.967Z,9.50
2018-11-02T17:14:30.894Z,9.40
2018-11-02T17:17:00.287Z,9.40
2018-11-02T17:19:29.622Z,9.30
2018-11-02T17:21:59.667Z,9.30
2018-11-02T17:24:28.615Z,9.20
2018-11-02T17:26:58.611Z,9.10
2018-11-02T17:29:28.062Z,9.20
2018-11-02T17:31:57.959Z,9.10
2018-11-02T17:34:27.926Z,9.20
2018-11-02T17:36:56.804Z,9.20
2018-11-02T17:39:26.290Z,9.20
2018-11-02T17:41:54.969Z,9.20
2018-11-02T17:44:24.002Z,9.10
2018-11-02T17:46:53.559Z,9.00
2018-11-02T17:49:22.576Z,9.00
2018-11-02T17:51:51.501Z,8.90
2018-11-02T17:54:21.404Z,8.80
2018-11-02T17:56:50.932Z,8.80
2018-11-02T17:59:19.864Z,8.70
2018-11-02T18:01:48.801Z,8.70
2018-11-02T18:04:17.852Z,8.70
2018-11-02T18:06:46.974Z,8.60
2018-11-02T18:09:16.331Z,8.50
2018-11-02T18:11:45.352Z,8.50
2018-11-02T18:14:14.173Z,8.40
2018-11-02T18:16:43.086Z,8.40
2018-11-02T18:19:13.384Z,8.40
2018-11-02T18:21:42.642Z,8.30
2018-11-02T18:24:11.329Z,8.30
2018-11-02T18:26:40.616Z,8.30
2018-11-02T18:29:09.540Z,8.30
2018-11-02T18:31:38.139Z,8.20
2018-11-02T18:34:06.837Z,8.30
2018-11-02T18:36:35.960Z,8.20
2018-11-02T18:39:08.782Z,8.20
2018-11-02T18:41:37.437Z,8.10
2018-11-02T18:44:06.490Z,8.10
2018-11-02T18:46:35.331Z,8.10
2018-11-02T18:49:04.504Z,8.00
2018-11-02T18:51:34.044Z,8.00
2018-11-02T18:54:02.773Z,7.90
2018-11-02T18:56:31.540Z,7.90
2018-11-02T18:59:00.234Z,7.90
2018-11-02T19:01:29.984Z,7.90
2018-11-02T19:03:59.102Z,7.90
2018-11-02T19:06:29.481Z,7.80
2018-11-02T19:08:59.444Z,7.80
2018-11-02T19:11:28.316Z,7.80
2018-11-02T19:13:58.040Z,7.80
2018-11-02T19:16:26.934Z,7.70
2018-11-02T19:18:55.979Z,7.70
2018-11-02T19:21:25.207Z,7.70
2018-11-02T19:23:54.037Z,7.70
2018-11-02T19:26:23.090Z,7.70
2018-11-02T19:28:52.405Z,7.70
2018-11-02T19:31:21.139Z,7.60
2018-11-02T19:33:49.707Z,7.60
2018-11-02T19:36:18.756Z,7.60
2018-11-02T19:38:47.858Z,7.60
2018-11-02T19:41:16.953Z,7.60
2018-11-02T19:43:46.081Z,7.50
2018-11-02T19:46:15.454Z,7.50
2018-11-02T19:48:45.296Z,7.50
2018-11-02T19:51:14.491Z,7.50
2018-11-02T19:53:43.428Z,7.50
2018-11-02T19:56:12.843Z,7.50
2018-11-02T19:58:42.722Z,7.50
2018-11-02T20:01:11.828Z,7.40
2018-11-02T20:03:42.169Z,7.40
2018-11-02T20:06:11.592Z,7.40
2018-11-02T20:08:40.935Z,7.30
2018-11-02T20:11:09.988Z,7.30
2018-11-02T20:13:39.126Z,7.20
2018-11-02T20:16:08.391Z,7.20
2018-11-02T20:18:37.371Z,7.20
2018-11-02T20:21:06.053Z,7.20
2018-11-02T20:23:34.766Z,7.20
2018-11-02T20:26:04.813Z,7.10
2018-11-02T20:28:33.860Z,7.10
2018-11-02T20:31:02.585Z,7.10
2018-11-02T20:33:32.092Z,7.10
2018-11-02T20:36:02.542Z,7.10
2018-11-02T20:38:31.891Z,7.10
2018-11-02T20:41:01.232Z,7.10
2018-11-02T20:43:31.308Z,7.10
2018-11-02T20:46:00.668Z,7.00
2018-11-02T20:48:31.442Z,7.00
2018-11-02T20:51:01.226Z,7.00
2018-11-02T20:53:30.780Z,6.90
2018-11-02T20:56:00.297Z,6.90
2018-11-02T20:58:29.651Z,6.90
2018-11-02T21:01:00.008Z,6.80
2018-11-02T21:03:29.324Z,6.80
2018-11-02T21:05:58.893Z,6.90
2018-11-02T21:08:28.343Z,6.80
2018-11-02T21:10:58.539Z,6.90
2018-11-02T21:13:29.402Z,6.80
2018-11-02T21:15:59.199Z,6.80
2018-11-02T21:18:28.671Z,6.80
2018-11-02T21:20:58.162Z,6.80
2018-11-02T21:23:26.915Z,6.80
2018-11-02T21:25:56.641Z,6.80
2018-11-02T21:28:27.042Z,6.70
2018-11-02T21:30:57.312Z,6.70
2018-11-02T21:33:27.914Z,6.70
2018-11-02T21:35:56.586Z,6.70
2018-11-02T21:38:25.195Z,6.60
2018-11-02T21:40:53.777Z,6.60
2018-11-02T21:43:22.864Z,6.60
2018-11-02T21:45:52.548Z,6.60
2018-11-02T21:48:22.635Z,6.60
2018-11-02T21:50:52.586Z,6.60
2018-11-02T21:53:21.310Z,6.50
2018-11-02T21:55:51.915Z,6.50
2018-11-02T21:58:21.809Z,6.50
2018-11-02T22:00:57.557Z,6.40
2018-11-02T22:03:26.982Z,6.40
2018-11-02T22:05:57.105Z,6.40
2018-11-02T22:08:27.054Z,6.40
2018-11-02T22:10:57.449Z,6.40
2018-11-02T22:13:26.714Z,6.40
2018-11-02T22:15:56.722Z,6.40
2018-11-02T22:18:26.390Z,6.40
2018-11-02T22:20:56.381Z,6.40
2018-11-02T22:23:25.606Z,6.40
2018-11-02T22:25:54.462Z,6.40
2018-11-02T22:28:24.318Z,6.40
2018-11-02T22:30:53.945Z,6.30
2018-11-02T22:33:23.352Z,6.30
2018-11-02T22:35:53.352Z,6.30
2018-11-02T22:38:23.691Z,6.30
2018-11-02T22:40:52.484Z,6.30
2018-11-02T22:43:21.610Z,6.30
2018-11-02T22:45:51.340Z,6.30
2018-11-02T22:48:25.992Z,6.30
2018-11-02T22:50:56.795Z,6.30
2018-11-02T22:53:25.460Z,6.30
2018-11-02T22:55:54.812Z,6.30
2018-11-02T22:58:25.006Z,6.30
2018-11-02T23:01:00.220Z,6.20
2018-11-02T23:03:29.704Z,6.10
2018-11-02T23:05:59.236Z,6.10
2018-11-02T23:08:29.443Z,6.10
2018-11-02T23:10:58.686Z,6.00
2018-11-02T23:13:28.140Z,5.90
2018-11-02T23:15:57.959Z,5.80
2018-11-02T23:18:28.338Z,5.70
2018-11-02T23:20:57.477Z,5.70
2018-11-02T23:23:26.464Z,5.60
2018-11-02T23:25:55.915Z,5.60
2018-11-02T23:28:26.016Z,5.50
2018-11-02T23:30:55.432Z,5.40
2018-11-02T23:33:25.115Z,5.40
2018-11-02T23:35:53.745Z,5.40
2018-11-02T23:38:23.888Z,5.40
2018-11-02T23:40:53.032Z,5.40
2018-11-02T23:43:22.472Z,5.40
2018-11-02T23:45:51.631Z,5.40
2018-11-02T23:48:21.094Z,5.40
2018-11-02T23:50:51.288Z,5.30
2018-11-02T23:53:20.721Z,5.30
2018-11-02T23:55:50.780Z,5.20
2018-11-02T23:58:19.928Z,5.20
